Time;durP1;ratioP1;P1;durP2;ratioP2;P2;SDS_P1;SDS_P2;PMS_P1;PMS_P2;Temp;Humidity;BMP_temperature;BMP_pressure;BME280_temperature;BME280_humidity;BME280_pressure;Samples;Min_cycle;Max_cycle;Signal;HPM_P1;HPM_P2
2023/12/11 00:02:25;;;;;;;;;;;8.90;99.90;;;;;;5043551;28;19929;-77
2023/12/11 00:04:50;;;;;;;;;;;9.00;99.90;;;;;;5071790;28;20337;-78
2023/12/11 00:07:16;;;;;;;;;;;9.00;99.90;;;;;;5043283;28;20379;-77
2023/12/11 00:09:41;;;;;;;;;;;9.00;99.90;;;;;;5075045;28;19932;-77
2023/12/11 00:12:07;;;;;;;;;;;9.00;99.90;;;;;;5064496;28;19964;-78
2023/12/11 00:14:32;;;;;;;;;;;9.10;99.90;;;;;;5064428;28;20371;-78
2023/12/11 00:16:58;;;;;;;;;;;9.00;99.90;;;;;;5048937;28;19939;-77
2023/12/11 00:19:24;;;;;;;;;;;9.00;99.90;;;;;;5049300;28;19928;-77
2023/12/11 00:21:49;;;;;;;;;;;8.90;99.90;;;;;;5033601;28;19925;-77
2023/12/11 00:24:15;;;;;;;;;;;9.00;99.90;;;;;;5029095;28;19978;-77
2023/12/11 00:26:40;;;;;;;;;;;8.90;99.90;;;;;;5068457;28;19924;-77
2023/12/11 00:29:06;;;;;;;;;;;9.00;99.90;;;;;;5050510;28;19960;-77
2023/12/11 00:31:31;;;;;;;;;;;9.00;99.90;;;;;;5065380;28;20016;-77
2023/12/11 00:33:57;;;;;;;;;;;9.00;99.90;;;;;;5073972;28;20382;-77
2023/12/11 00:36:23;;;;;;;;;;;9.00;99.90;;;;;;5046000;28;19924;-78
2023/12/11 00:38:48;;;;;;;;;;;9.00;99.90;;;;;;5089719;28;19931;-77
2023/12/11 00:41:15;;;;;;;;;;;9.00;99.90;;;;;;5053865;28;19933;-77
2023/12/11 00:43:41;;;;;;;;;;;9.00;99.90;;;;;;5068086;28;19932;-77
2023/12/11 00:46:06;;;;;;;;;;;9.10;99.90;;;;;;5066681;28;19932;-77
2023/12/11 00:48:32;;;;;;;;;;;9.00;99.90;;;;;;5083565;28;19925;-75
2023/12/11 00:50:57;;;;;;;;;;;9.10;99.90;;;;;;5051179;28;20402;-75
2023/12/11 00:53:23;;;;;;;;;;;9.10;99.90;;;;;;5035711;28;19924;-75
2023/12/11 00:55:48;;;;;;;;;;;9.10;99.90;;;;;;5087072;28;19968;-75
2023/12/11 00:58:14;;;;;;;;;;;9.10;99.90;;;;;;5084587;28;19935;-75
2023/12/11 01:00:39;;;;;;;;;;;9.00;99.90;;;;;;5050831;28;21953;-75
2023/12/11 01:03:05;;;;;;;;;;;9.00;99.90;;;;;;5056223;28;19981;-75
2023/12/11 01:05:31;;;;;;;;;;;9.00;99.90;;;;;;5064406;28;19987;-75
2023/12/11 01:07:56;;;;;;;;;;;9.00;99.90;;;;;;5068191;28;19925;-75
2023/12/11 01:10:22;;;;;;;;;;;9.00;99.90;;;;;;5052710;28;20362;-77
2023/12/11 01:12:47;;;;;;;;;;;9.00;99.90;;;;;;5057671;28;20318;-75
2023/12/11 01:15:13;;;;;;;;;;;9.00;99.90;;;;;;5083341;28;19928;-75
2023/12/11 01:17:38;;;;;;;;;;;8.90;99.90;;;;;;5057544;28;19928;-76
2023/12/11 01:20:04;;;;;;;;;;;8.90;99.90;;;;;;5049737;28;19932;-76
2023/12/11 01:22:30;;;;;;;;;;;8.90;99.90;;;;;;5085067;28;20271;-75
2023/12/11 01:24:55;;;;;;;;;;;8.90;99.90;;;;;;5087214;28;20353;-75
2023/12/11 01:27:21;;;;;;;;;;;8.90;99.90;;;;;;5053082;28;19928;-75
2023/12/11 01:29:46;;;;;;;;;;;8.90;99.90;;;;;;5067054;28;19970;-75
2023/12/11 01:32:12;;;;;;;;;;;8.90;99.90;;;;;;5079294;28;20303;-74
2023/12/11 01:34:37;;;;;;;;;;;8.90;99.90;;;;;;5081920;28;19932;-75
2023/12/11 01:37:03;;;;;;;;;;;8.90;99.90;;;;;;5066615;28;20023;-72
2023/12/11 01:39:29;;;;;;;;;;;8.90;99.90;;;;;;5050379;28;19986;-72
2023/12/11 01:41:54;;;;;;;;;;;8.90;99.90;;;;;;5083820;28;20298;-73
2023/12/11 01:44:20;;;;;;;;;;;8.90;99.90;;;;;;5053182;28;19939;-73
2023/12/11 01:46:46;;;;;;;;;;;8.90;99.90;;;;;;5067303;28;19925;-74
2023/12/11 01:49:12;;;;;;;;;;;8.90;99.90;;;;;;5069040;28;20411;-74
2023/12/11 01:51:38;;;;;;;;;;;8.90;99.90;;;;;;5055121;28;20023;-74
2023/12/11 01:54:03;;;;;;;;;;;8.90;99.90;;;;;;5069816;28;20024;-75
2023/12/11 01:56:29;;;;;;;;;;;8.90;99.90;;;;;;5066359;28;20634;-75
2023/12/11 01:58:55;;;;;;;;;;;8.80;99.90;;;;;;5068699;28;20355;-75
2023/12/11 02:01:22;;;;;;;;;;;8.90;99.90;;;;;;5068066;28;20332;-74
2023/12/11 02:03:47;;;;;;;;;;;8.90;99.90;;;;;;5068164;28;19932;-74
2023/12/11 02:06:13;;;;;;;;;;;8.90;99.90;;;;;;5065189;28;20385;-74
2023/12/11 02:08:38;;;;;;;;;;;8.90;99.90;;;;;;5071273;28;19931;-75
2023/12/11 02:11:04;;;;;;;;;;;9.00;99.90;;;;;;5063687;28;19932;-75
2023/12/11 02:13:30;;;;;;;;;;;9.00;99.90;;;;;;5050245;28;20042;-75
2023/12/11 02:15:56;;;;;;;;;;;9.00;99.90;;;;;;5080276;28;19932;-75
2023/12/11 02:18:22;;;;;;;;;;;9.00;99.90;;;;;;5067222;28;19928;-75
2023/12/11 02:20:47;;;;;;;;;;;9.00;99.90;;;;;;5069861;28;19932;-75
2023/12/11 02:23:28;;;;;;;;;;;8.90;99.90;;;;;;5068291;28;19924;-74
2023/12/11 02:26:03;;;;;;;;;;;8.90;99.90;;;;;;5067106;28;19925;-74
2023/12/11 02:28:28;;;;;;;;;;;8.90;99.90;;;;;;5067657;28;19924;-74
2023/12/11 02:30:54;;;;;;;;;;;9.00;99.90;;;;;;5061855;28;19927;-74
2023/12/11 02:33:19;;;;;;;;;;;9.00;99.90;;;;;;5067783;28;19946;-74
2023/12/11 02:35:45;;;;;;;;;;;8.90;99.90;;;;;;5065804;28;19977;-74
2023/12/11 02:38:11;;;;;;;;;;;9.00;99.90;;;;;;5054005;28;19920;-74
2023/12/11 02:40:36;;;;;;;;;;;9.00;99.90;;;;;;5066954;28;20298;-75
2023/12/11 02:43:02;;;;;;;;;;;9.00;99.90;;;;;;5068672;28;19967;-74
2023/12/11 02:45:28;;;;;;;;;;;9.00;99.90;;;;;;5051071;28;19933;-75
2023/12/11 02:48:02;;;;;;;;;;;9.00;99.90;;;;;;5047247;28;19931;-75
2023/12/11 02:50:30;;;;;;;;;;;9.00;99.90;;;;;;5065422;28;20573;-75
2023/12/11 02:53:00;;;;;;;;;;;9.00;99.90;;;;;;5063450;28;19932;-75
2023/12/11 02:55:26;;;;;;;;;;;9.00;99.90;;;;;;5048716;28;19932;-75
2023/12/11 02:57:53;;;;;;;;;;;9.00;99.90;;;;;;5047342;28;20477;-75
2023/12/11 03:00:18;;;;;;;;;;;9.00;99.90;;;;;;5051203;28;19983;-74
2023/12/11 03:02:44;;;;;;;;;;;9.00;99.90;;;;;;5047343;28;19935;-74
2023/12/11 03:05:09;;;;;;;;;;;9.00;99.90;;;;;;5048296;28;20331;-74
2023/12/11 03:07:35;;;;;;;;;;;9.10;99.90;;;;;;5033386;28;19929;-74
2023/12/11 03:10:00;;;;;;;;;;;9.10;99.90;;;;;;5064432;28;19924;-74
2023/12/11 03:12:27;;;;;;;;;;;9.10;99.90;;;;;;5073217;28;19924;-74
2023/12/11 03:14:53;;;;;;;;;;;9.10;99.90;;;;;;5066620;28;19929;-74
2023/12/11 03:17:18;;;;;;;;;;;9.10;99.90;;;;;;5051503;28;20054;-74
2023/12/11 03:19:44;;;;;;;;;;;9.10;99.90;;;;;;5064724;28;19928;-74
2023/12/11 03:22:09;;;;;;;;;;;9.10;99.90;;;;;;5053934;28;20019;-74
2023/12/11 03:24:35;;;;;;;;;;;9.10;99.90;;;;;;5053032;28;20081;-74
2023/12/11 03:27:00;;;;;;;;;;;9.10;99.90;;;;;;5050896;28;19932;-75
2023/12/11 03:29:26;;;;;;;;;;;9.10;99.90;;;;;;5073520;28;19928;-75
2023/12/11 03:31:52;;;;;;;;;;;9.10;99.90;;;;;;5082536;28;19985;-75
2023/12/11 03:34:17;;;;;;;;;;;9.10;99.90;;;;;;5034430;28;19920;-75
2023/12/11 03:36:43;;;;;;;;;;;9.20;99.90;;;;;;5050574;28;19967;-75
2023/12/11 03:39:09;;;;;;;;;;;9.10;99.90;;;;;;5067454;28;19924;-75
2023/12/11 03:41:34;;;;;;;;;;;9.20;99.90;;;;;;5068230;28;19996;-75
2023/12/11 03:44:00;;;;;;;;;;;9.20;99.90;;;;;;5067565;28;19947;-75
2023/12/11 03:46:25;;;;;;;;;;;9.20;99.90;;;;;;5052131;28;20331;-75
2023/12/11 03:48:51;;;;;;;;;;;9.20;99.90;;;;;;5041163;28;19929;-75
2023/12/11 03:51:17;;;;;;;;;;;9.20;99.90;;;;;;5049172;28;20502;-75
2023/12/11 03:53:42;;;;;;;;;;;9.20;99.90;;;;;;5048683;28;19925;-75
2023/12/11 03:56:08;;;;;;;;;;;9.20;99.90;;;;;;5046704;28;20269;-75
2023/12/11 03:58:33;;;;;;;;;;;9.30;99.90;;;;;;5046245;28;20019;-75
2023/12/11 04:00:59;;;;;;;;;;;9.20;99.90;;;;;;5047302;28;20291;-75
2023/12/11 04:03:25;;;;;;;;;;;9.20;99.90;;;;;;5041282;28;19985;-75
2023/12/11 04:05:50;;;;;;;;;;;9.20;99.90;;;;;;5047132;28;19925;-75
2023/12/11 04:08:16;;;;;;;;;;;9.30;99.90;;;;;;5048834;28;19950;-75
2023/12/11 04:10:41;;;;;;;;;;;9.30;99.90;;;;;;5053613;28;19967;-75
2023/12/11 04:13:07;;;;;;;;;;;9.30;99.90;;;;;;5047864;28;19970;-75
2023/12/11 04:15:33;;;;;;;;;;;9.30;99.90;;;;;;5047387;28;19978;-75
2023/12/11 04:17:58;;;;;;;;;;;9.30;99.90;;;;;;5042745;28;19921;-75
2023/12/11 04:20:24;;;;;;;;;;;9.30;99.90;;;;;;5088881;28;19975;-74
2023/12/11 04:22:49;;;;;;;;;;;9.20;99.90;;;;;;5047908;28;19931;-75
2023/12/11 04:25:15;;;;;;;;;;;9.30;99.90;;;;;;5049927;28;20024;-74
2023/12/11 04:27:41;;;;;;;;;;;9.20;99.90;;;;;;5051964;28;20466;-74
2023/12/11 04:30:07;;;;;;;;;;;9.20;99.90;;;;;;5050429;28;19929;-75
2023/12/11 04:32:32;;;;;;;;;;;9.20;99.90;;;;;;5046753;28;19925;-75
2023/12/11 04:34:58;;;;;;;;;;;9.20;99.90;;;;;;5053530;28;19924;-74
2023/12/11 04:37:23;;;;;;;;;;;9.10;99.90;;;;;;5048286;28;19928;-74
2023/12/11 04:39:49;;;;;;;;;;;9.10;99.90;;;;;;5048907;28;19976;-75
2023/12/11 04:42:15;;;;;;;;;;;9.10;99.90;;;;;;5048765;28;19929;-75
2023/12/11 04:44:40;;;;;;;;;;;9.10;99.90;;;;;;5080714;28;19932;-75
2023/12/11 04:47:06;;;;;;;;;;;9.10;99.90;;;;;;5048426;28;19963;-75
2023/12/11 04:49:32;;;;;;;;;;;9.20;99.90;;;;;;5046614;28;20020;-75
2023/12/11 04:51:57;;;;;;;;;;;9.20;99.90;;;;;;5052432;28;19985;-75
2023/12/11 04:54:23;;;;;;;;;;;9.20;99.90;;;;;;5049625;28;19936;-75
2023/12/11 04:56:48;;;;;;;;;;;9.20;99.90;;;;;;5032219;28;19934;-75
2023/12/11 04:59:14;;;;;;;;;;;9.20;99.90;;;;;;5047904;28;19987;-75
2023/12/11 05:01:39;;;;;;;;;;;9.30;99.90;;;;;;5044326;28;19929;-75
2023/12/11 05:04:05;;;;;;;;;;;9.20;99.90;;;;;;5050817;28;19967;-75
2023/12/11 05:06:31;;;;;;;;;;;9.20;99.90;;;;;;5047780;28;19956;-75
2023/12/11 05:08:56;;;;;;;;;;;9.30;99.90;;;;;;5046104;28;19929;-75
2023/12/11 05:11:22;;;;;;;;;;;9.30;99.90;;;;;;5050780;28;20004;-75
2023/12/11 05:13:47;;;;;;;;;;;9.30;99.90;;;;;;5047780;28;19979;-75
2023/12/11 05:16:13;;;;;;;;;;;9.30;99.90;;;;;;5047161;28;19929;-75
2023/12/11 05:18:39;;;;;;;;;;;9.30;99.90;;;;;;5048342;28;19924;-75
2023/12/11 05:21:05;;;;;;;;;;;9.40;99.90;;;;;;5051664;28;19929;-74
2023/12/11 05:23:30;;;;;;;;;;;9.30;99.90;;;;;;5064859;28;20288;-74
2023/12/11 05:25:56;;;;;;;;;;;9.30;99.90;;;;;;5048399;28;19925;-75
2023/12/11 05:28:21;;;;;;;;;;;9.30;99.90;;;;;;5050047;28;20376;-75
2023/12/11 05:30:47;;;;;;;;;;;9.30;99.90;;;;;;5047540;28;20273;-74
2023/12/11 05:33:12;;;;;;;;;;;9.30;99.90;;;;;;5046524;28;19978;-75
2023/12/11 05:35:38;;;;;;;;;;;9.30;99.90;;;;;;5030523;28;19933;-75
2023/12/11 05:38:04;;;;;;;;;;;9.30;99.90;;;;;;5044184;28;19929;-75
2023/12/11 05:40:29;;;;;;;;;;;9.30;99.90;;;;;;5049654;28;20039;-75
2023/12/11 05:42:55;;;;;;;;;;;9.30;99.90;;;;;;5029105;28;19929;-74
2023/12/11 05:45:20;;;;;;;;;;;9.30;99.90;;;;;;5044962;28;19924;-75
2023/12/11 05:47:46;;;;;;;;;;;9.30;99.90;;;;;;5054449;28;20355;-74
2023/12/11 05:50:12;;;;;;;;;;;9.30;99.90;;;;;;5050497;28;20017;-78
2023/12/11 05:52:37;;;;;;;;;;;9.30;99.90;;;;;;5063206;28;19920;-75
2023/12/11 05:55:03;;;;;;;;;;;9.20;99.90;;;;;;5068951;28;19966;-74
2023/12/11 05:57:29;;;;;;;;;;;9.20;99.90;;;;;;5070774;28;19932;-74
2023/12/11 05:59:55;;;;;;;;;;;9.20;99.90;;;;;;5067466;28;19978;-75
2023/12/11 06:02:21;;;;;;;;;;;9.20;99.90;;;;;;5061361;28;20048;-75
2023/12/11 06:04:46;;;;;;;;;;;9.10;99.90;;;;;;5045008;28;20963;-74
2023/12/11 06:07:12;;;;;;;;;;;9.10;99.90;;;;;;5051975;28;19928;-75
2023/12/11 06:09:38;;;;;;;;;;;9.10;99.90;;;;;;5051724;28;20147;-75
2023/12/11 06:12:03;;;;;;;;;;;9.10;99.90;;;;;;5037752;28;20075;-76
2023/12/11 06:14:29;;;;;;;;;;;9.10;99.90;;;;;;5044766;28;19931;-75
2023/12/11 06:16:55;;;;;;;;;;;9.10;99.90;;;;;;5061831;28;19932;-76
2023/12/11 06:19:20;;;;;;;;;;;9.00;99.90;;;;;;5070141;28;19970;-75
2023/12/11 06:21:46;;;;;;;;;;;9.00;99.90;;;;;;5069557;28;19924;-74
2023/12/11 06:24:11;;;;;;;;;;;9.10;99.90;;;;;;5065590;28;20374;-75
2023/12/11 06:26:42;;;;;;;;;;;9.10;99.90;;;;;;5071834;28;19925;-76
2023/12/11 06:29:08;;;;;;;;;;;9.00;99.90;;;;;;5065108;28;19971;-74
2023/12/11 06:31:34;;;;;;;;;;;9.00;99.90;;;;;;5068893;28;19925;-74
2023/12/11 06:33:59;;;;;;;;;;;9.10;99.90;;;;;;5052256;28;20475;-75
2023/12/11 06:36:28;;;;;;;;;;;9.10;99.90;;;;;;5050024;28;19932;-74
2023/12/11 06:38:53;;;;;;;;;;;9.10;99.90;;;;;;5052874;28;19977;-74
2023/12/11 06:41:19;;;;;;;;;;;9.00;99.90;;;;;;5047030;28;19936;-75
2023/12/11 06:43:52;;;;;;;;;;;8.90;99.90;;;;;;5050966;28;19958;-76
2023/12/11 06:46:17;;;;;;;;;;;8.90;99.90;;;;;;5049247;28;19986;-77
2023/12/11 06:48:43;;;;;;;;;;;9.00;99.90;;;;;;5048314;28;19936;-76
2023/12/11 06:51:09;;;;;;;;;;;8.90;99.90;;;;;;5071738;28;19933;-77
2023/12/11 06:53:34;;;;;;;;;;;9.00;99.90;;;;;;5076850;28;20420;-77
2023/12/11 06:56:00;;;;;;;;;;;9.00;99.90;;;;;;5065193;28;20295;-78
2023/12/11 06:58:25;;;;;;;;;;;9.00;99.90;;;;;;5047787;28;19958;-77
2023/12/11 07:00:51;;;;;;;;;;;9.00;99.90;;;;;;5065011;28;19983;-71
2023/12/11 07:03:17;;;;;;;;;;;9.00;99.90;;;;;;5069472;28;19986;-75
2023/12/11 07:05:43;;;;;;;;;;;9.00;99.90;;;;;;5049162;28;20023;-73
2023/12/11 07:08:09;;;;;;;;;;;9.00;99.90;;;;;;5055132;28;20249;-73
2023/12/11 07:10:34;;;;;;;;;;;8.90;99.90;;;;;;5045620;28;19932;-70
2023/12/11 07:13:00;;;;;;;;;;;8.90;99.90;;;;;;5078809;28;20384;-70
2023/12/11 07:15:26;;;;;;;;;;;8.90;99.90;;;;;;5080272;28;19939;-70
2023/12/11 07:17:51;;;;;;;;;;;8.90;99.90;;;;;;5029377;28;19929;-69
2023/12/11 07:20:17;;;;;;;;;;;8.90;99.90;;;;;;5044017;28;19936;-69
2023/12/11 07:22:44;;;;;;;;;;;8.90;99.90;;;;;;5082085;28;20405;-69
2023/12/11 07:25:10;;;;;;;;;;;8.90;99.90;;;;;;5040918;28;20011;-69
2023/12/11 07:27:36;;;;;;;;;;;8.90;99.90;;;;;;5047976;28;20056;-68
2023/12/11 07:30:01;;;;;;;;;;;8.90;99.90;;;;;;5064598;28;19932;-68
2023/12/11 07:32:27;;;;;;;;;;;8.90;99.90;;;;;;5042740;28;20003;-68
2023/12/11 07:34:52;;;;;;;;;;;8.80;99.90;;;;;;5046087;28;20288;-70
2023/12/11 07:37:18;;;;;;;;;;;8.80;99.90;;;;;;5078878;28;19974;-68
2023/12/11 07:39:43;;;;;;;;;;;8.80;99.90;;;;;;5047392;28;20926;-73
2023/12/11 07:42:09;;;;;;;;;;;8.90;99.90;;;;;;5068186;28;19999;-73
2023/12/11 07:44:34;;;;;;;;;;;8.80;99.90;;;;;;5057376;28;19929;-73
2023/12/11 07:47:00;;;;;;;;;;;8.80;99.90;;;;;;5033799;28;19924;-73
2023/12/11 07:49:26;;;;;;;;;;;8.80;99.90;;;;;;5049419;28;19924;-72
2023/12/11 07:51:54;;;;;;;;;;;8.80;99.90;;;;;;5034888;28;19960;-73
2023/12/11 07:54:20;;;;;;;;;;;8.80;99.90;;;;;;5073241;28;19924;-72
2023/12/11 07:56:47;;;;;;;;;;;8.90;99.90;;;;;;5072722;28;19969;-72
2023/12/11 07:59:12;;;;;;;;;;;8.80;99.90;;;;;;5066378;28;19925;-72
2023/12/11 08:01:38;;;;;;;;;;;8.80;99.90;;;;;;5067204;28;19928;-73
2023/12/11 08:04:04;;;;;;;;;;;8.80;99.90;;;;;;5077622;28;19973;-72
2023/12/11 08:06:30;;;;;;;;;;;8.80;99.90;;;;;;5047127;28;19977;-72
2023/12/11 08:08:56;;;;;;;;;;;8.80;99.90;;;;;;5035200;28;20291;-72
2023/12/11 08:11:22;;;;;;;;;;;8.80;99.90;;;;;;5052730;28;19928;-72
2023/12/11 08:13:48;;;;;;;;;;;8.80;99.90;;;;;;5070359;28;19924;-72
2023/12/11 08:16:14;;;;;;;;;;;8.80;99.90;;;;;;5050587;28;20018;-72
2023/12/11 08:18:40;;;;;;;;;;;8.80;99.90;;;;;;5071410;28;19927;-72
2023/12/11 08:21:06;;;;;;;;;;;8.80;99.90;;;;;;5057377;28;20371;-72
2023/12/11 08:23:32;;;;;;;;;;;8.80;99.90;;;;;;5014443;28;19931;-73
2023/12/11 08:25:57;;;;;;;;;;;8.80;99.90;;;;;;5053042;28;20057;-73
2023/12/11 08:28:23;;;;;;;;;;;8.80;99.90;;;;;;5050908;28;19928;-73
2023/12/11 08:30:48;;;;;;;;;;;8.80;99.90;;;;;;5068091;28;20392;-73
2023/12/11 08:33:14;;;;;;;;;;;8.80;99.90;;;;;;5087576;28;19939;-73
2023/12/11 08:35:39;;;;;;;;;;;8.80;99.90;;;;;;5049862;28;19939;-73
2023/12/11 08:38:05;;;;;;;;;;;8.90;99.90;;;;;;5037976;28;20077;-73
2023/12/11 08:40:31;;;;;;;;;;;8.90;99.90;;;;;;5067031;28;19924;-73
2023/12/11 08:42:57;;;;;;;;;;;8.90;99.90;;;;;;5054691;28;20407;-73
2023/12/11 08:45:23;;;;;;;;;;;9.00;99.90;;;;;;5081594;28;19939;-73
2023/12/11 08:47:48;;;;;;;;;;;8.90;99.90;;;;;;5041051;28;19932;-73
2023/12/11 08:50:14;;;;;;;;;;;9.00;99.90;;;;;;5060343;28;19933;-73
2023/12/11 08:52:41;;;;;;;;;;;9.00;99.90;;;;;;5059970;28;19931;-72
2023/12/11 08:55:07;;;;;;;;;;;9.00;99.90;;;;;;5070284;28;20012;-72
2023/12/11 08:57:33;;;;;;;;;;;9.00;99.90;;;;;;5042145;28;19928;-72
2023/12/11 08:59:58;;;;;;;;;;;9.10;99.90;;;;;;5055568;28;19986;-72
2023/12/11 09:02:24;;;;;;;;;;;9.10;99.90;;;;;;5058917;28;20386;-71
2023/12/11 09:04:49;;;;;;;;;;;9.00;99.90;;;;;;5053249;28;19925;-73
2023/12/11 09:07:15;;;;;;;;;;;9.10;99.90;;;;;;5077314;28;19928;-71
2023/12/11 09:09:41;;;;;;;;;;;9.00;99.90;;;;;;5038580;28;20410;-72
2023/12/11 09:12:06;;;;;;;;;;;9.00;99.90;;;;;;5054061;28;19986;-72
2023/12/11 09:14:33;;;;;;;;;;;9.10;99.90;;;;;;5045580;28;19932;-71
2023/12/11 09:16:59;;;;;;;;;;;9.00;99.90;;;;;;5060846;28;19942;-72
2023/12/11 09:19:25;;;;;;;;;;;9.00;99.90;;;;;;5038285;28;19955;-72
2023/12/11 09:21:50;;;;;;;;;;;8.90;99.90;;;;;;5048775;28;19932;-72
2023/12/11 09:24:16;;;;;;;;;;;9.00;99.90;;;;;;5072607;28;19932;-72
2023/12/11 09:26:41;;;;;;;;;;;9.00;99.90;;;;;;5049131;28;20007;-72
2023/12/11 09:29:07;;;;;;;;;;;9.10;99.90;;;;;;5074908;28;20000;-72
2023/12/11 09:31:32;;;;;;;;;;;9.10;99.90;;;;;;5056670;28;19925;-72
2023/12/11 09:33:58;;;;;;;;;;;9.10;99.90;;;;;;5042134;28;20165;-72
2023/12/11 09:36:24;;;;;;;;;;;9.10;99.90;;;;;;5041714;28;19923;-72
2023/12/11 09:38:49;;;;;;;;;;;9.10;99.90;;;;;;5058962;28;20400;-73
2023/12/11 09:41:15;;;;;;;;;;;9.00;99.90;;;;;;5053796;28;20513;-72
2023/12/11 09:43:41;;;;;;;;;;;9.00;99.90;;;;;;5056652;28;20143;-72
2023/12/11 09:46:08;;;;;;;;;;;9.10;99.90;;;;;;5052908;28;19929;-73
2023/12/11 09:48:33;;;;;;;;;;;9.20;99.90;;;;;;5053797;28;20438;-72
2023/12/11 09:51:00;;;;;;;;;;;9.20;99.90;;;;;;5039399;28;19924;-72
2023/12/11 09:53:26;;;;;;;;;;;9.30;99.90;;;;;;5032669;28;20426;-72
2023/12/11 09:55:51;;;;;;;;;;;9.30;99.90;;;;;;5016396;28;19936;-73
2023/12/11 09:58:19;;;;;;;;;;;9.30;99.90;;;;;;5054460;28;20473;-72
2023/12/11 10:00:45;;;;;;;;;;;9.30;99.90;;;;;;5052517;28;20006;-72
2023/12/11 10:03:10;;;;;;;;;;;9.30;99.90;;;;;;5049912;28;19932;-72
2023/12/11 10:05:36;;;;;;;;;;;9.30;99.90;;;;;;5068647;28;20357;-72
2023/12/11 10:08:02;;;;;;;;;;;9.30;99.90;;;;;;5059995;28;20311;-71
2023/12/11 10:10:31;;;;;;;;;;;9.30;99.90;;;;;;5037379;28;19933;-72
2023/12/11 10:12:58;;;;;;;;;;;9.30;99.90;;;;;;5040552;28;20410;-71
2023/12/11 10:15:30;;;;;;;;;;;9.30;99.90;;;;;;5056890;28;20865;-72
2023/12/11 10:18:03;;;;;;;;;;;9.30;99.90;;;;;;5052761;28;19928;-73
2023/12/11 10:20:29;;;;;;;;;;;9.30;99.90;;;;;;5036097;28;20070;-72
2023/12/11 10:22:55;;;;;;;;;;;9.30;99.90;;;;;;5037474;28;19932;-71
2023/12/11 10:25:27;;;;;;;;;;;9.40;99.90;;;;;;5046891;28;20463;-71
2023/12/11 10:28:07;;;;;;;;;;;9.30;99.90;;;;;;5038640;28;19925;-71
2023/12/11 10:30:33;;;;;;;;;;;9.40;99.90;;;;;;5060329;28;19932;-71
2023/12/11 10:32:59;;;;;;;;;;;9.30;99.90;;;;;;5064415;28;19924;-71
2023/12/11 10:35:25;;;;;;;;;;;9.40;99.90;;;;;;5025537;28;20081;-71
2023/12/11 10:37:51;;;;;;;;;;;9.40;99.90;;;;;;5036618;28;20189;-72
2023/12/11 10:40:16;;;;;;;;;;;9.40;99.90;;;;;;5073804;28;19939;-71
2023/12/11 10:42:42;;;;;;;;;;;9.40;99.90;;;;;;5035417;28;19939;-71
2023/12/11 10:45:07;;;;;;;;;;;9.40;99.90;;;;;;5059058;28;19928;-71
2023/12/11 10:47:34;;;;;;;;;;;9.50;99.90;;;;;;5054863;28;19928;-71
2023/12/11 10:50:02;;;;;;;;;;;9.40;99.90;;;;;;5043219;28;19940;-71
2023/12/11 10:52:28;;;;;;;;;;;9.40;99.90;;;;;;5043839;28;19932;-72
2023/12/11 10:54:54;;;;;;;;;;;9.40;99.90;;;;;;5076093;28;20023;-71
2023/12/11 10:57:22;;;;;;;;;;;9.50;99.90;;;;;;5051502;28;20282;-71
2023/12/11 10:59:50;;;;;;;;;;;9.40;99.90;;;;;;5051772;28;19931;-71
2023/12/11 11:02:17;;;;;;;;;;;9.50;99.90;;;;;;5049630;28;19933;-71
2023/12/11 11:04:44;;;;;;;;;;;9.50;99.90;;;;;;5063754;28;19928;-70
2023/12/11 11:07:19;;;;;;;;;;;9.40;99.90;;;;;;5060804;28;19924;-71
2023/12/11 11:10:06;;;;;;;;;;;9.40;99.90;;;;;;5061866;28;19933;-71
2023/12/11 11:12:38;;;;;;;;;;;9.40;99.90;;;;;;5031763;28;19940;-71
2023/12/11 11:15:05;;;;;;;;;;;9.40;99.90;;;;;;5062626;28;19989;-71
2023/12/11 11:17:49;;;;;;;;;;;9.30;99.90;;;;;;5061061;28;19931;-71
2023/12/11 11:20:17;;;;;;;;;;;9.40;99.90;;;;;;5057899;28;19928;-70
2023/12/11 11:22:42;;;;;;;;;;;9.30;99.90;;;;;;5041776;28;20418;-70
2023/12/11 11:25:27;;;;;;;;;;;9.30;99.90;;;;;;5045600;28;19934;-71
2023/12/11 11:27:52;;;;;;;;;;;9.20;99.90;;;;;;5077455;28;19932;-71
2023/12/11 11:30:36;;;;;;;;;;;9.10;99.90;;;;;;5044813;28;19928;-71
2023/12/11 11:33:02;;;;;;;;;;;9.10;99.90;;;;;;5079900;28;20303;-71
2023/12/11 11:35:43;;;;;;;;;;;9.10;99.90;;;;;;5042187;28;19932;-71
2023/12/11 11:38:09;;;;;;;;;;;9.00;99.90;;;;;;5058678;28;20336;-72
2023/12/11 11:40:35;;;;;;;;;;;9.10;99.90;;;;;;5044542;28;20559;-72
2023/12/11 11:43:01;;;;;;;;;;;9.10;99.90;;;;;;5047586;28;19939;-73
2023/12/11 11:45:26;;;;;;;;;;;9.10;99.90;;;;;;5084439;28;20405;-71
2023/12/11 11:47:52;;;;;;;;;;;9.20;99.90;;;;;;5057246;28;19928;-71
2023/12/11 11:50:18;;;;;;;;;;;9.20;99.90;;;;;;5065414;28;20442;-71
2023/12/11 11:52:47;;;;;;;;;;;9.20;99.90;;;;;;5048272;28;20006;-72
2023/12/11 11:55:15;;;;;;;;;;;9.30;99.90;;;;;;5073879;28;19932;-72
2023/12/11 11:57:41;;;;;;;;;;;9.30;99.90;;;;;;5073313;28;19931;-71
2023/12/11 12:00:07;;;;;;;;;;;9.20;99.90;;;;;;5072277;28;20311;-71
2023/12/11 12:02:32;;;;;;;;;;;9.20;99.90;;;;;;5053020;28;19932;-72
2023/12/11 12:05:07;;;;;;;;;;;9.10;99.90;;;;;;5048585;28;19928;-71
2023/12/11 12:07:33;;;;;;;;;;;9.10;99.90;;;;;;5052470;28;20402;-72
2023/12/11 12:09:59;;;;;;;;;;;9.10;99.90;;;;;;5028224;28;20119;-72
2023/12/11 12:12:26;;;;;;;;;;;9.10;99.90;;;;;;5065025;28;19924;-72
2023/12/11 12:15:02;;;;;;;;;;;9.10;99.90;;;;;;5030759;28;19976;-71
2023/12/11 12:17:27;;;;;;;;;;;9.10;99.90;;;;;;5049034;28;20011;-71
2023/12/11 12:19:53;;;;;;;;;;;9.10;99.90;;;;;;5051983;28;20037;-72
2023/12/11 12:22:19;;;;;;;;;;;9.10;99.90;;;;;;5069879;28;20005;-71
2023/12/11 12:24:48;;;;;;;;;;;9.00;99.90;;;;;;5069788;28;20351;-72
2023/12/11 12:27:18;;;;;;;;;;;9.00;99.90;;;;;;5069319;28;20015;-71
2023/12/11 12:29:45;;;;;;;;;;;9.00;99.90;;;;;;5067311;28;20331;-71
2023/12/11 12:32:12;;;;;;;;;;;8.90;99.90;;;;;;5084268;28;19982;-71
2023/12/11 12:34:38;;;;;;;;;;;8.90;99.90;;;;;;5072599;28;19924;-72
2023/12/11 12:37:04;;;;;;;;;;;8.90;99.90;;;;;;5070203;28;20354;-72
2023/12/11 12:39:29;;;;;;;;;;;8.90;99.90;;;;;;5059433;28;20014;-71
2023/12/11 12:41:55;;;;;;;;;;;8.90;99.90;;;;;;5071983;28;19999;-72
2023/12/11 12:44:21;;;;;;;;;;;8.90;99.90;;;;;;5070265;28;20007;-72
2023/12/11 12:46:47;;;;;;;;;;;8.90;99.90;;;;;;5053405;28;20175;-72
2023/12/11 12:49:13;;;;;;;;;;;8.90;99.90;;;;;;5075569;28;19924;-72
2023/12/11 12:51:50;;;;;;;;;;;8.90;99.90;;;;;;5054610;28;19936;-72
2023/12/11 12:54:16;;;;;;;;;;;8.90;99.90;;;;;;5069117;28;20386;-72
2023/12/11 12:56:42;;;;;;;;;;;8.90;99.90;;;;;;5058949;28;19931;-71
2023/12/11 12:59:08;;;;;;;;;;;8.80;99.90;;;;;;5052199;28;19924;-72
2023/12/11 13:01:42;;;;;;;;;;;8.80;99.90;;;;;;5069599;28;19931;-72
2023/12/11 13:04:09;;;;;;;;;;;8.90;99.90;;;;;;5052485;28;19963;-73
2023/12/11 13:06:34;;;;;;;;;;;9.00;99.90;;;;;;5079988;28;19928;-73
2023/12/11 13:09:01;;;;;;;;;;;9.00;99.90;;;;;;5051334;28;20086;-73
2023/12/11 13:11:47;;;;;;;;;;;9.10;99.90;;;;;;5068277;28;19931;-75
2023/12/11 13:14:13;;;;;;;;;;;9.10;99.90;;;;;;5051244;28;19928;-72
2023/12/11 13:16:42;;;;;;;;;;;9.10;99.90;;;;;;5069572;28;19928;-73
2023/12/11 13:19:13;;;;;;;;;;;9.10;99.90;;;;;;5070098;28;19925;-69
2023/12/11 13:21:39;;;;;;;;;;;9.10;99.90;;;;;;5067695;28;20198;-72
2023/12/11 13:24:05;;;;;;;;;;;9.00;99.90;;;;;;5073345;28;20214;-72
2023/12/11 13:26:31;;;;;;;;;;;9.00;99.90;;;;;;5069488;28;19930;-72
2023/12/11 13:28:56;;;;;;;;;;;8.90;99.90;;;;;;5087293;28;19932;-71
2023/12/11 13:31:24;;;;;;;;;;;8.90;99.90;;;;;;5088120;28;19963;-71
2023/12/11 13:33:49;;;;;;;;;;;8.90;99.90;;;;;;5046180;28;20383;-71
2023/12/11 13:36:15;;;;;;;;;;;8.80;99.90;;;;;;5068178;28;19939;-71
2023/12/11 13:38:41;;;;;;;;;;;8.80;99.90;;;;;;5046233;28;19928;-72
2023/12/11 13:41:06;;;;;;;;;;;8.80;99.90;;;;;;5048924;28;20023;-71
2023/12/11 13:43:32;;;;;;;;;;;8.70;99.90;;;;;;5049205;28;20034;-71
2023/12/11 13:45:59;;;;;;;;;;;8.70;99.90;;;;;;5071233;28;20407;-71
2023/12/11 13:48:25;;;;;;;;;;;8.80;99.90;;;;;;5033890;28;19936;-72
2023/12/11 13:50:51;;;;;;;;;;;8.80;99.90;;;;;;5048532;28;19928;-72
2023/12/11 13:53:16;;;;;;;;;;;8.70;99.90;;;;;;5047531;28;19925;-72
2023/12/11 13:55:43;;;;;;;;;;;8.70;99.90;;;;;;5067830;28;20406;-71
2023/12/11 13:58:08;;;;;;;;;;;8.80;99.90;;;;;;5035705;28;20023;-72
2023/12/11 14:00:34;;;;;;;;;;;8.70;99.90;;;;;;5045533;28;20107;-72
2023/12/11 14:03:00;;;;;;;;;;;8.70;99.90;;;;;;5048836;28;19928;-72
2023/12/11 14:05:26;;;;;;;;;;;8.70;99.90;;;;;;5027839;28;20066;-72
2023/12/11 14:07:52;;;;;;;;;;;8.70;99.90;;;;;;5065974;28;19924;-72
2023/12/11 14:10:18;;;;;;;;;;;8.60;99.90;;;;;;5063770;28;20383;-72
2023/12/11 14:12:43;;;;;;;;;;;8.60;99.90;;;;;;5049920;28;19929;-72
2023/12/11 14:15:09;;;;;;;;;;;8.60;99.90;;;;;;5086382;28;19924;-72
2023/12/11 14:17:35;;;;;;;;;;;8.50;99.90;;;;;;5071763;28;19998;-71
2023/12/11 14:20:00;;;;;;;;;;;8.50;99.90;;;;;;5066729;28;20017;-72
2023/12/11 14:22:26;;;;;;;;;;;8.50;99.90;;;;;;5044521;28;19924;-71
2023/12/11 14:24:52;;;;;;;;;;;8.40;99.90;;;;;;5068040;28;20217;-72
2023/12/11 14:27:18;;;;;;;;;;;8.40;99.90;;;;;;5058355;28;20282;-71